sensor_id;sensor_type;location;lat;lon;timestamp;P1;durP1;ratioP1;P2;durP2;ratioP2
8159;SDS011;27404;52.398;9.646;2023-04-06T00:00:18;15.80;;;11.40;;
8159;SDS011;27404;52.398;9.646;2023-04-06T00:02:43;14.93;;;10.73;;
8159;SDS011;27404;52.398;9.646;2023-04-06T00:05:09;16.83;;;11.10;;
8159;SDS011;27404;52.398;9.646;2023-04-06T00:07:35;15.70;;;10.90;;
8159;SDS011;27404;52.398;9.646;2023-04-06T00:10:01;15.77;;;10.27;;
8159;SDS011;27404;52.398;9.646;2023-04-06T00:12:26;15.10;;;10.50;;
8159;SDS011;27404;52.398;9.646;2023-04-06T00:14:52;14.33;;;10.43;;
8159;SDS011;27404;52.398;9.646;2023-04-06T00:17:17;16.00;;;11.47;;
8159;SDS011;27404;52.398;9.646;2023-04-06T00:19:43;16.20;;;11.13;;
8159;SDS011;27404;52.398;9.646;2023-04-06T00:22:08;16.73;;;11.57;;
8159;SDS011;27404;52.398;9.646;2023-04-06T00:24:33;19.97;;;11.70;;
8159;SDS011;27404;52.398;9.646;2023-04-06T00:26:59;17.00;;;11.23;;
8159;SDS011;27404;52.398;9.646;2023-04-06T00:29:24;17.37;;;10.77;;
8159;SDS011;27404;52.398;9.646;2023-04-06T00:31:50;15.97;;;11.07;;
8159;SDS011;27404;52.398;9.646;2023-04-06T00:34:15;16.33;;;10.97;;
8159;SDS011;27404;52.398;9.646;2023-04-06T00:36:41;14.47;;;11.00;;
8159;SDS011;27404;52.398;9.646;2023-04-06T00:39:06;14.70;;;10.77;;
8159;SDS011;27404;52.398;9.646;2023-04-06T00:41:32;16.23;;;10.60;;
8159;SDS011;27404;52.398;9.646;2023-04-06T00:43:57;16.33;;;11.43;;
8159;SDS011;27404;52.398;9.646;2023-04-06T00:46:23;20.70;;;10.73;;
8159;SDS011;27404;52.398;9.646;2023-04-06T00:48:48;15.90;;;11.67;;
8159;SDS011;27404;52.398;9.646;2023-04-06T00:51:14;18.93;;;11.33;;
8159;SDS011;27404;52.398;9.646;2023-04-06T00:53:39;16.93;;;10.80;;
8159;SDS011;27404;52.398;9.646;2023-04-06T00:56:05;14.93;;;10.33;;
8159;SDS011;27404;52.398;9.646;2023-04-06T00:58:31;18.57;;;11.87;;
8159;SDS011;27404;52.398;9.646;2023-04-06T01:00:57;14.10;;;10.43;;
8159;SDS011;27404;52.398;9.646;2023-04-06T01:03:22;15.33;;;11.03;;
8159;SDS011;27404;52.398;9.646;2023-04-06T01:05:48;14.53;;;10.20;;
8159;SDS011;27404;52.398;9.646;2023-04-06T01:08:14;17.33;;;10.63;;
8159;SDS011;27404;52.398;9.646;2023-04-06T01:10:39;21.33;;;11.70;;
8159;SDS011;27404;52.398;9.646;2023-04-06T01:13:05;15.47;;;11.20;;
8159;SDS011;27404;52.398;9.646;2023-04-06T01:15:30;14.47;;;10.50;;
8159;SDS011;27404;52.398;9.646;2023-04-06T01:17:58;15.83;;;10.93;;
8159;SDS011;27404;52.398;9.646;2023-04-06T01:20:24;14.10;;;10.10;;
8159;SDS011;27404;52.398;9.646;2023-04-06T01:22:49;14.67;;;10.47;;
8159;SDS011;27404;52.398;9.646;2023-04-06T01:25:15;15.80;;;10.60;;
8159;SDS011;27404;52.398;9.646;2023-04-06T01:27:40;14.03;;;10.60;;
8159;SDS011;27404;52.398;9.646;2023-04-06T01:30:06;15.87;;;10.73;;
8159;SDS011;27404;52.398;9.646;2023-04-06T01:32:32;16.27;;;11.30;;
8159;SDS011;27404;52.398;9.646;2023-04-06T01:34:58;18.13;;;10.87;;
8159;SDS011;27404;52.398;9.646;2023-04-06T01:37:23;20.37;;;10.73;;
8159;SDS011;27404;52.398;9.646;2023-04-06T01:39:49;15.03;;;10.47;;
8159;SDS011;27404;52.398;9.646;2023-04-06T01:42:15;15.23;;;10.70;;
8159;SDS011;27404;52.398;9.646;2023-04-06T01:44:41;15.20;;;10.03;;
8159;SDS011;27404;52.398;9.646;2023-04-06T01:47:06;16.93;;;10.80;;
8159;SDS011;27404;52.398;9.646;2023-04-06T01:49:32;13.83;;;10.20;;
8159;SDS011;27404;52.398;9.646;2023-04-06T01:51:57;14.27;;;10.37;;
8159;SDS011;27404;52.398;9.646;2023-04-06T01:54:22;15.23;;;10.67;;
8159;SDS011;27404;52.398;9.646;2023-04-06T01:56:48;14.20;;;9.23;;
8159;SDS011;27404;52.398;9.646;2023-04-06T01:59:15;11.70;;;9.00;;
8159;SDS011;27404;52.398;9.646;2023-04-06T02:01:41;14.30;;;9.37;;
8159;SDS011;27404;52.398;9.646;2023-04-06T02:04:06;15.07;;;9.67;;
8159;SDS011;27404;52.398;9.646;2023-04-06T02:06:31;14.97;;;10.17;;
8159;SDS011;27404;52.398;9.646;2023-04-06T02:08:57;14.57;;;9.17;;
8159;SDS011;27404;52.398;9.646;2023-04-06T02:11:22;11.87;;;9.00;;
8159;SDS011;27404;52.398;9.646;2023-04-06T02:13:48;13.37;;;8.67;;
8159;SDS011;27404;52.398;9.646;2023-04-06T02:16:13;12.27;;;8.53;;
8159;SDS011;27404;52.398;9.646;2023-04-06T02:18:39;14.07;;;8.43;;
8159;SDS011;27404;52.398;9.646;2023-04-06T02:21:05;13.00;;;7.90;;
8159;SDS011;27404;52.398;9.646;2023-04-06T02:23:30;11.00;;;8.10;;
8159;SDS011;27404;52.398;9.646;2023-04-06T02:25:56;14.10;;;8.03;;
8159;SDS011;27404;52.398;9.646;2023-04-06T02:28:21;13.87;;;8.40;;
8159;SDS011;27404;52.398;9.646;2023-04-06T02:30:47;11.67;;;7.80;;
8159;SDS011;27404;52.398;9.646;2023-04-06T02:33:12;10.60;;;7.70;;
8159;SDS011;27404;52.398;9.646;2023-04-06T02:35:37;13.53;;;7.40;;
8159;SDS011;27404;52.398;9.646;2023-04-06T02:38:03;11.40;;;7.67;;
8159;SDS011;27404;52.398;9.646;2023-04-06T02:40:28;10.50;;;7.57;;
8159;SDS011;27404;52.398;9.646;2023-04-06T02:42:54;12.43;;;7.10;;
8159;SDS011;27404;52.398;9.646;2023-04-06T02:45:19;9.87;;;6.40;;
8159;SDS011;27404;52.398;9.646;2023-04-06T02:47:45;11.97;;;7.13;;
8159;SDS011;27404;52.398;9.646;2023-04-06T02:50:10;10.20;;;7.03;;
8159;SDS011;27404;52.398;9.646;2023-04-06T02:52:36;9.83;;;6.90;;
8159;SDS011;27404;52.398;9.646;2023-04-06T02:55:02;9.17;;;6.43;;
8159;SDS011;27404;52.398;9.646;2023-04-06T02:57:27;10.23;;;6.77;;
8159;SDS011;27404;52.398;9.646;2023-04-06T02:59:53;8.37;;;5.50;;
8159;SDS011;27404;52.398;9.646;2023-04-06T03:02:18;9.13;;;6.43;;
8159;SDS011;27404;52.398;9.646;2023-04-06T03:04:43;8.90;;;6.40;;
8159;SDS011;27404;52.398;9.646;2023-04-06T03:07:09;9.90;;;6.37;;
8159;SDS011;27404;52.398;9.646;2023-04-06T03:09:36;10.70;;;6.80;;
8159;SDS011;27404;52.398;9.646;2023-04-06T03:12:02;7.27;;;5.43;;
8159;SDS011;27404;52.398;9.646;2023-04-06T03:14:28;10.50;;;5.97;;
8159;SDS011;27404;52.398;9.646;2023-04-06T03:16:53;9.77;;;6.07;;
8159;SDS011;27404;52.398;9.646;2023-04-06T03:19:19;10.33;;;6.23;;
8159;SDS011;27404;52.398;9.646;2023-04-06T03:21:44;8.93;;;5.63;;
8159;SDS011;27404;52.398;9.646;2023-04-06T03:24:09;8.93;;;5.77;;
8159;SDS011;27404;52.398;9.646;2023-04-06T03:26:35;9.43;;;6.30;;
8159;SDS011;27404;52.398;9.646;2023-04-06T03:29:01;8.80;;;5.77;;
8159;SDS011;27404;52.398;9.646;2023-04-06T03:31:26;8.83;;;5.90;;
8159;SDS011;27404;52.398;9.646;2023-04-06T03:33:52;10.13;;;6.10;;
8159;SDS011;27404;52.398;9.646;2023-04-06T03:36:17;9.73;;;5.63;;
8159;SDS011;27404;52.398;9.646;2023-04-06T03:38:43;10.63;;;6.37;;
8159;SDS011;27404;52.398;9.646;2023-04-06T03:41:08;10.07;;;6.13;;
8159;SDS011;27404;52.398;9.646;2023-04-06T03:43:34;9.13;;;6.20;;
8159;SDS011;27404;52.398;9.646;2023-04-06T03:45:59;10.70;;;5.90;;
8159;SDS011;27404;52.398;9.646;2023-04-06T03:48:25;10.33;;;5.63;;
8159;SDS011;27404;52.398;9.646;2023-04-06T03:50:50;10.77;;;6.03;;
8159;SDS011;27404;52.398;9.646;2023-04-06T03:53:16;13.73;;;6.30;;
8159;SDS011;27404;52.398;9.646;2023-04-06T03:55:41;9.33;;;5.87;;
8159;SDS011;27404;52.398;9.646;2023-04-06T03:58:07;8.73;;;6.27;;
8159;SDS011;27404;52.398;9.646;2023-04-06T04:00:32;10.27;;;6.00;;
8159;SDS011;27404;52.398;9.646;2023-04-06T04:02:58;9.30;;;6.33;;
8159;SDS011;27404;52.398;9.646;2023-04-06T04:05:23;10.70;;;6.20;;
8159;SDS011;27404;52.398;9.646;2023-04-06T04:07:50;10.77;;;5.73;;
8159;SDS011;27404;52.398;9.646;2023-04-06T04:10:17;10.07;;;6.17;;
8159;SDS011;27404;52.398;9.646;2023-04-06T04:12:42;10.77;;;6.70;;
8159;SDS011;27404;52.398;9.646;2023-04-06T04:15:08;11.63;;;6.77;;
8159;SDS011;27404;52.398;9.646;2023-04-06T04:17:33;9.27;;;6.30;;
8159;SDS011;27404;52.398;9.646;2023-04-06T04:19:59;9.00;;;5.73;;
8159;SDS011;27404;52.398;9.646;2023-04-06T04:22:24;9.87;;;6.50;;
8159;SDS011;27404;52.398;9.646;2023-04-06T04:24:50;10.47;;;6.53;;
8159;SDS011;27404;52.398;9.646;2023-04-06T04:27:15;10.87;;;5.83;;
8159;SDS011;27404;52.398;9.646;2023-04-06T04:29:40;11.50;;;6.47;;
8159;SDS011;27404;52.398;9.646;2023-04-06T04:32:06;9.43;;;6.17;;
8159;SDS011;27404;52.398;9.646;2023-04-06T04:34:31;8.47;;;6.30;;
8159;SDS011;27404;52.398;9.646;2023-04-06T04:36:57;11.57;;;6.53;;
8159;SDS011;27404;52.398;9.646;2023-04-06T04:39:23;11.27;;;6.90;;
8159;SDS011;27404;52.398;9.646;2023-04-06T04:41:48;11.93;;;6.90;;
8159;SDS011;27404;52.398;9.646;2023-04-06T04:44:14;10.80;;;6.53;;
8159;SDS011;27404;52.398;9.646;2023-04-06T04:46:39;12.70;;;7.10;;
8159;SDS011;27404;52.398;9.646;2023-04-06T04:49:06;13.73;;;7.90;;
8159;SDS011;27404;52.398;9.646;2023-04-06T04:51:31;14.23;;;7.50;;
8159;SDS011;27404;52.398;9.646;2023-04-06T04:53:57;11.90;;;6.33;;
8159;SDS011;27404;52.398;9.646;2023-04-06T04:56:23;16.27;;;7.30;;
8159;SDS011;27404;52.398;9.646;2023-04-06T04:58:48;13.73;;;7.43;;
8159;SDS011;27404;52.398;9.646;2023-04-06T05:01:14;9.73;;;7.00;;
8159;SDS011;27404;52.398;9.646;2023-04-06T05:03:39;12.17;;;7.00;;
8159;SDS011;27404;52.398;9.646;2023-04-06T05:06:05;14.30;;;7.17;;
8159;SDS011;27404;52.398;9.646;2023-04-06T05:08:31;14.13;;;6.53;;
8159;SDS011;27404;52.398;9.646;2023-04-06T05:10:56;11.63;;;7.50;;
8159;SDS011;27404;52.398;9.646;2023-04-06T05:13:22;14.10;;;7.30;;
8159;SDS011;27404;52.398;9.646;2023-04-06T05:15:47;13.27;;;6.93;;
8159;SDS011;27404;52.398;9.646;2023-04-06T05:18:13;10.47;;;6.97;;
8159;SDS011;27404;52.398;9.646;2023-04-06T05:20:39;14.17;;;7.47;;
8159;SDS011;27404;52.398;9.646;2023-04-06T05:23:04;12.13;;;8.00;;
8159;SDS011;27404;52.398;9.646;2023-04-06T05:25:30;12.67;;;7.00;;
8159;SDS011;27404;52.398;9.646;2023-04-06T05:27:56;12.83;;;7.13;;
8159;SDS011;27404;52.398;9.646;2023-04-06T05:30:21;14.53;;;7.20;;
8159;SDS011;27404;52.398;9.646;2023-04-06T05:32:47;11.23;;;7.83;;
8159;SDS011;27404;52.398;9.646;2023-04-06T05:35:12;14.53;;;7.23;;
8159;SDS011;27404;52.398;9.646;2023-04-06T05:37:38;14.27;;;7.90;;
8159;SDS011;27404;52.398;9.646;2023-04-06T05:40:04;12.50;;;7.23;;
8159;SDS011;27404;52.398;9.646;2023-04-06T05:42:37;13.83;;;7.60;;
8159;SDS011;27404;52.398;9.646;2023-04-06T05:45:09;14.37;;;7.17;;
8159;SDS011;27404;52.398;9.646;2023-04-06T05:47:36;12.40;;;7.30;;
8159;SDS011;27404;52.398;9.646;2023-04-06T05:50:02;12.63;;;7.50;;
8159;SDS011;27404;52.398;9.646;2023-04-06T05:52:27;13.67;;;6.80;;
8159;SDS011;27404;52.398;9.646;2023-04-06T05:54:53;13.50;;;7.30;;
8159;SDS011;27404;52.398;9.646;2023-04-06T05:57:18;11.33;;;6.93;;
8159;SDS011;27404;52.398;9.646;2023-04-06T05:59:44;11.93;;;7.20;;
8159;SDS011;27404;52.398;9.646;2023-04-06T06:02:09;13.57;;;7.57;;
8159;SDS011;27404;52.398;9.646;2023-04-06T06:04:35;10.50;;;6.40;;
8159;SDS011;27404;52.398;9.646;2023-04-06T06:07:01;11.20;;;6.57;;
8159;SDS011;27404;52.398;9.646;2023-04-06T06:09:27;12.50;;;6.30;;
8159;SDS011;27404;52.398;9.646;2023-04-06T06:11:52;8.30;;;5.37;;
8159;SDS011;27404;52.398;9.646;2023-04-06T06:14:17;11.07;;;5.70;;
8159;SDS011;27404;52.398;9.646;2023-04-06T06:16:43;12.27;;;5.10;;
8159;SDS011;27404;52.398;9.646;2023-04-06T06:19:08;8.17;;;5.23;;
8159;SDS011;27404;52.398;9.646;2023-04-06T06:21:34;9.70;;;5.40;;
8159;SDS011;27404;52.398;9.646;2023-04-06T06:23:59;11.10;;;5.10;;
8159;SDS011;27404;52.398;9.646;2023-04-06T06:26:25;7.87;;;5.47;;
8159;SDS011;27404;52.398;9.646;2023-04-06T06:28:51;6.07;;;4.87;;
8159;SDS011;27404;52.398;9.646;2023-04-06T06:31:16;11.73;;;5.73;;
8159;SDS011;27404;52.398;9.646;2023-04-06T06:33:42;9.07;;;5.87;;
8159;SDS011;27404;52.398;9.646;2023-04-06T06:36:07;7.13;;;5.03;;
8159;SDS011;27404;52.398;9.646;2023-04-06T06:38:32;9.33;;;5.60;;
8159;SDS011;27404;52.398;9.646;2023-04-06T06:40:58;8.27;;;5.53;;
8159;SDS011;27404;52.398;9.646;2023-04-06T06:43:23;8.60;;;6.00;;
8159;SDS011;27404;52.398;9.646;2023-04-06T06:45:49;10.37;;;5.50;;
8159;SDS011;27404;52.398;9.646;2023-04-06T06:48:15;6.60;;;5.20;;
8159;SDS011;27404;52.398;9.646;2023-04-06T06:50:40;7.90;;;5.50;;
8159;SDS011;27404;52.398;9.646;2023-04-06T06:53:06;9.83;;;5.83;;
8159;SDS011;27404;52.398;9.646;2023-04-06T06:55:31;8.40;;;5.47;;
8159;SDS011;27404;52.398;9.646;2023-04-06T06:57:57;7.33;;;5.43;;
8159;SDS011;27404;52.398;9.646;2023-04-06T07:00:22;10.30;;;5.63;;
8159;SDS011;27404;52.398;9.646;2023-04-06T07:02:48;8.50;;;5.80;;
8159;SDS011;27404;52.398;9.646;2023-04-06T07:05:14;8.27;;;5.77;;
8159;SDS011;27404;52.398;9.646;2023-04-06T07:07:40;9.10;;;5.60;;
8159;SDS011;27404;52.398;9.646;2023-04-06T07:10:06;8.97;;;5.60;;
8159;SDS011;27404;52.398;9.646;2023-04-06T07:12:32;8.53;;;5.77;;
8159;SDS011;27404;52.398;9.646;2023-04-06T07:14:58;11.57;;;5.70;;
8159;SDS011;27404;52.398;9.646;2023-04-06T07:17:23;8.00;;;5.63;;
8159;SDS011;27404;52.398;9.646;2023-04-06T07:19:49;9.53;;;5.40;;
8159;SDS011;27404;52.398;9.646;2023-04-06T07:22:14;9.80;;;5.80;;
8159;SDS011;27404;52.398;9.646;2023-04-06T07:24:40;9.73;;;5.43;;
8159;SDS011;27404;52.398;9.646;2023-04-06T07:27:05;7.67;;;5.37;;
8159;SDS011;27404;52.398;9.646;2023-04-06T07:29:31;6.90;;;4.73;;
8159;SDS011;27404;52.398;9.646;2023-04-06T07:31:56;8.93;;;5.53;;
8159;SDS011;27404;52.398;9.646;2023-04-06T07:34:22;7.67;;;5.60;;
8159;SDS011;27404;52.398;9.646;2023-04-06T07:36:47;9.03;;;5.53;;
8159;SDS011;27404;52.398;9.646;2023-04-06T07:39:13;10.33;;;6.47;;
8159;SDS011;27404;52.398;9.646;2023-04-06T07:41:39;9.13;;;5.70;;
8159;SDS011;27404;52.398;9.646;2023-04-06T07:44:04;8.53;;;6.13;;
8159;SDS011;27404;52.398;9.646;2023-04-06T07:46:30;10.50;;;6.17;;
8159;SDS011;27404;52.398;9.646;2023-04-06T07:48:56;8.93;;;6.27;;
8159;SDS011;27404;52.398;9.646;2023-04-06T07:51:23;7.87;;;6.23;;
8159;SDS011;27404;52.398;9.646;2023-04-06T07:53:50;7.67;;;5.63;;
8159;SDS011;27404;52.398;9.646;2023-04-06T07:56:15;8.40;;;5.60;;
8159;SDS011;27404;52.398;9.646;2023-04-06T07:58:41;9.80;;;6.00;;
8159;SDS011;27404;52.398;9.646;2023-04-06T08:01:06;8.33;;;5.40;;
8159;SDS011;27404;52.398;9.646;2023-04-06T08:03:33;7.20;;;5.20;;
8159;SDS011;27404;52.398;9.646;2023-04-06T08:05:59;8.37;;;5.23;;
8159;SDS011;27404;52.398;9.646;2023-04-06T08:08:25;6.67;;;5.37;;
8159;SDS011;27404;52.398;9.646;2023-04-06T08:10:50;8.13;;;5.27;;
8159;SDS011;27404;52.398;9.646;2023-04-06T08:13:15;7.90;;;5.77;;
8159;SDS011;27404;52.398;9.646;2023-04-06T08:15:41;10.80;;;5.53;;
8159;SDS011;27404;52.398;9.646;2023-04-06T08:18:07;8.80;;;6.10;;
8159;SDS011;27404;52.398;9.646;2023-04-06T08:20:33;7.07;;;5.13;;
8159;SDS011;27404;52.398;9.646;2023-04-06T08:22:58;7.30;;;5.37;;
8159;SDS011;27404;52.398;9.646;2023-04-06T08:25:24;8.73;;;5.77;;
8159;SDS011;27404;52.398;9.646;2023-04-06T08:27:49;7.23;;;5.57;;
8159;SDS011;27404;52.398;9.646;2023-04-06T08:30:15;9.63;;;5.30;;
8159;SDS011;27404;52.398;9.646;2023-04-06T08:32:40;6.40;;;5.30;;
8159;SDS011;27404;52.398;9.646;2023-04-06T08:35:06;10.60;;;5.53;;
8159;SDS011;27404;52.398;9.646;2023-04-06T08:37:32;8.27;;;5.23;;
8159;SDS011;27404;52.398;9.646;2023-04-06T08:39:58;7.60;;;5.30;;
8159;SDS011;27404;52.398;9.646;2023-04-06T08:42:24;8.40;;;5.80;;
8159;SDS011;27404;52.398;9.646;2023-04-06T08:44:51;8.67;;;5.33;;
8159;SDS011;27404;52.398;9.646;2023-04-06T08:47:17;9.70;;;5.57;;
8159;SDS011;27404;52.398;9.646;2023-04-06T08:49:44;10.80;;;5.43;;
8159;SDS011;27404;52.398;9.646;2023-04-06T08:52:11;9.07;;;5.87;;
8159;SDS011;27404;52.398;9.646;2023-04-06T08:54:37;9.63;;;5.50;;
8159;SDS011;27404;52.398;9.646;2023-04-06T08:57:04;9.30;;;5.67;;
8159;SDS011;27404;52.398;9.646;2023-04-06T08:59:30;8.37;;;5.33;;
8159;SDS011;27404;52.398;9.646;2023-04-06T09:01:56;8.63;;;5.87;;
8159;SDS011;27404;52.398;9.646;2023-04-06T09:04:24;10.37;;;5.40;;
8159;SDS011;27404;52.398;9.646;2023-04-06T09:06:49;9.03;;;5.60;;
8159;SDS011;27404;52.398;9.646;2023-04-06T09:09:15;8.73;;;5.60;;
8159;SDS011;27404;52.398;9.646;2023-04-06T09:11:44;7.83;;;5.83;;
8159;SDS011;27404;52.398;9.646;2023-04-06T09:14:11;7.27;;;5.27;;
8159;SDS011;27404;52.398;9.646;2023-04-06T09:16:40;10.83;;;5.87;;
8159;SDS011;27404;52.398;9.646;2023-04-06T09:19:10;8.03;;;5.50;;
8159;SDS011;27404;52.398;9.646;2023-04-06T09:21:36;8.00;;;5.73;;
8159;SDS011;27404;52.398;9.646;2023-04-06T09:24:03;9.10;;;5.67;;
8159;SDS011;27404;52.398;9.646;2023-04-06T09:26:29;8.97;;;5.47;;
8159;SDS011;27404;52.398;9.646;2023-04-06T09:28:56;6.53;;;5.33;;
8159;SDS011;27404;52.398;9.646;2023-04-06T09:31:24;7.63;;;5.13;;
8159;SDS011;27404;52.398;9.646;2023-04-06T09:33:53;7.03;;;5.13;;
8159;SDS011;27404;52.398;9.646;2023-04-06T09:36:19;7.90;;;4.93;;
8159;SDS011;27404;52.398;9.646;2023-04-06T09:38:56;11.37;;;5.97;;
8159;SDS011;27404;52.398;9.646;2023-04-06T09:41:26;9.93;;;5.37;;
8159;SDS011;27404;52.398;9.646;2023-04-06T09:46:30;9.27;;;5.50;;
8159;SDS011;27404;52.398;9.646;2023-04-06T09:48:58;6.87;;;5.10;;
8159;SDS011;27404;52.398;9.646;2023-04-06T09:51:24;7.93;;;5.40;;
8159;SDS011;27404;52.398;9.646;2023-04-06T09:53:55;10.83;;;5.93;;
8159;SDS011;27404;52.398;9.646;2023-04-06T09:56:27;8.63;;;5.23;;
8159;SDS011;27404;52.398;9.646;2023-04-06T09:58:56;8.83;;;5.80;;
8159;SDS011;27404;52.398;9.646;2023-04-06T10:01:28;7.40;;;5.13;;
8159;SDS011;27404;52.398;9.646;2023-04-06T10:04:16;6.77;;;5.20;;
8159;SDS011;27404;52.398;9.646;2023-04-06T10:06:52;8.57;;;5.17;;
8159;SDS011;27404;52.398;9.646;2023-04-06T10:09:18;7.83;;;5.10;;
8159;SDS011;27404;52.398;9.646;2023-04-06T10:11:48;8.00;;;5.37;;
8159;SDS011;27404;52.398;9.646;2023-04-06T10:14:15;7.90;;;5.37;;
8159;SDS011;27404;52.398;9.646;2023-04-06T10:16:41;10.10;;;5.37;;
8159;SDS011;27404;52.398;9.646;2023-04-06T10:19:10;8.53;;;5.20;;
8159;SDS011;27404;52.398;9.646;2023-04-06T10:21:41;8.07;;;5.40;;
8159;SDS011;27404;52.398;9.646;2023-04-06T10:24:10;7.27;;;5.57;;
8159;SDS011;27404;52.398;9.646;2023-04-06T10:26:37;9.47;;;5.63;;
8159;SDS011;27404;52.398;9.646;2023-04-06T10:29:03;7.80;;;5.50;;
8159;SDS011;27404;52.398;9.646;2023-04-06T10:31:29;8.47;;;5.40;;
8159;SDS011;27404;52.398;9.646;2023-04-06T10:33:58;8.17;;;5.60;;
8159;SDS011;27404;52.398;9.646;2023-04-06T10:36:26;11.30;;;5.50;;
8159;SDS011;27404;52.398;9.646;2023-04-06T10:38:56;7.03;;;5.10;;
8159;SDS011;27404;52.398;9.646;2023-04-06T10:41:24;10.63;;;5.70;;
8159;SDS011;27404;52.398;9.646;2023-04-06T10:43:56;9.73;;;6.07;;
8159;SDS011;27404;52.398;9.646;2023-04-06T10:46:25;8.50;;;5.90;;
8159;SDS011;27404;52.398;9.646;2023-04-06T10:48:52;9.20;;;5.90;;
8159;SDS011;27404;52.398;9.646;2023-04-06T10:51:17;10.73;;;5.63;;
8159;SDS011;27404;52.398;9.646;2023-04-06T10:53:47;10.63;;;6.10;;
8159;SDS011;27404;52.398;9.646;2023-04-06T10:56:15;9.27;;;5.87;;
8159;SDS011;27404;52.398;9.646;2023-04-06T10:58:45;9.27;;;6.07;;
8159;SDS011;27404;52.398;9.646;2023-04-06T11:01:15;8.13;;;5.73;;
8159;SDS011;27404;52.398;9.646;2023-04-06T11:03:45;9.47;;;6.17;;
8159;SDS011;27404;52.398;9.646;2023-04-06T11:06:19;9.67;;;6.57;;
8159;SDS011;27404;52.398;9.646;2023-04-06T11:08:48;8.73;;;6.50;;
8159;SDS011;27404;52.398;9.646;2023-04-06T11:11:15;10.07;;;6.17;;
8159;SDS011;27404;52.398;9.646;2023-04-06T11:21:34;9.20;;;6.30;;
8159;SDS011;27404;52.398;9.646;2023-04-06T11:24:10;12.90;;;6.90;;
8159;SDS011;27404;52.398;9.646;2023-04-06T11:26:56;9.33;;;5.97;;
8159;SDS011;27404;52.398;9.646;2023-04-06T11:29:26;12.00;;;6.57;;
8159;SDS011;27404;52.398;9.646;2023-04-06T11:31:59;10.77;;;6.57;;
8159;SDS011;27404;52.398;9.646;2023-04-06T11:34:25;10.80;;;6.83;;
8159;SDS011;27404;52.398;9.646;2023-04-06T11:36:58;10.20;;;6.83;;
8159;SDS011;27404;52.398;9.646;2023-04-06T11:39:25;12.67;;;7.10;;
8159;SDS011;27404;52.398;9.646;2023-04-06T11:41:53;11.17;;;6.90;;
8159;SDS011;27404;52.398;9.646;2023-04-06T11:44:31;9.07;;;6.67;;
8159;SDS011;27404;52.398;9.646;2023-04-06T11:47:02;9.57;;;7.13;;
8159;SDS011;27404;52.398;9.646;2023-04-06T11:49:28;10.30;;;7.03;;
8159;SDS011;27404;52.398;9.646;2023-04-06T11:51:55;10.77;;;6.67;;
8159;SDS011;27404;52.398;9.646;2023-04-06T11:54:31;11.27;;;7.10;;
8159;SDS011;27404;52.398;9.646;2023-04-06T11:57:02;11.27;;;7.23;;
8159;SDS011;27404;52.398;9.646;2023-04-06T11:59:28;11.03;;;6.83;;
8159;SDS011;27404;52.398;9.646;2023-04-06T12:01:53;14.87;;;6.40;;
8159;SDS011;27404;52.398;9.646;2023-04-06T12:04:19;10.60;;;7.27;;
8159;SDS011;27404;52.398;9.646;2023-04-06T12:06:45;11.47;;;7.33;;
8159;SDS011;27404;52.398;9.646;2023-04-06T12:09:11;10.17;;;7.10;;
8159;SDS011;27404;52.398;9.646;2023-04-06T12:11:36;11.73;;;7.30;;
8159;SDS011;27404;52.398;9.646;2023-04-06T12:14:02;13.73;;;7.63;;
8159;SDS011;27404;52.398;9.646;2023-04-06T12:16:29;13.17;;;7.77;;
8159;SDS011;27404;52.398;9.646;2023-04-06T12:18:56;16.93;;;7.53;;
8159;SDS011;27404;52.398;9.646;2023-04-06T12:21:21;10.60;;;7.30;;
8159;SDS011;27404;52.398;9.646;2023-04-06T12:23:47;12.27;;;7.17;;
8159;SDS011;27404;52.398;9.646;2023-04-06T12:26:12;11.67;;;7.73;;
8159;SDS011;27404;52.398;9.646;2023-04-06T12:28:38;9.90;;;6.83;;
8159;SDS011;27404;52.398;9.646;2023-04-06T12:31:03;10.90;;;7.57;;
8159;SDS011;27404;52.398;9.646;2023-04-06T12:33:28;12.27;;;7.60;;
8159;SDS011;27404;52.398;9.646;2023-04-06T12:35:54;10.67;;;7.27;;
8159;SDS011;27404;52.398;9.646;2023-04-06T12:38:19;10.30;;;7.00;;
8159;SDS011;27404;52.398;9.646;2023-04-06T12:40:46;10.87;;;6.80;;
8159;SDS011;27404;52.398;9.646;2023-04-06T12:43:11;11.60;;;7.17;;
8159;SDS011;27404;52.398;9.646;2023-04-06T12:45:38;9.90;;;7.40;;
8159;SDS011;27404;52.398;9.646;2023-04-06T12:48:04;12.13;;;8.27;;
8159;SDS011;27404;52.398;9.646;2023-04-06T12:50:30;12.03;;;8.20;;
8159;SDS011;27404;52.398;9.646;2023-04-06T12:52:55;12.53;;;7.90;;
8159;SDS011;27404;52.398;9.646;2023-04-06T12:55:21;9.20;;;6.47;;
8159;SDS011;27404;52.398;9.646;2023-04-06T12:57:46;13.63;;;8.03;;
8159;SDS011;27404;52.398;9.646;2023-04-06T13:00:12;11.93;;;7.27;;
8159;SDS011;27404;52.398;9.646;2023-04-06T13:02:39;10.77;;;7.20;;
8159;SDS011;27404;52.398;9.646;2023-04-06T13:05:04;12.13;;;7.87;;
8159;SDS011;27404;52.398;9.646;2023-04-06T13:07:30;9.70;;;7.47;;
8159;SDS011;27404;52.398;9.646;2023-04-06T13:09:55;9.63;;;7.40;;
8159;SDS011;27404;52.398;9.646;2023-04-06T13:12:21;10.10;;;7.43;;
8159;SDS011;27404;52.398;9.646;2023-04-06T13:14:46;11.43;;;7.63;;
8159;SDS011;27404;52.398;9.646;2023-04-06T13:17:16;10.60;;;7.30;;
8159;SDS011;27404;52.398;9.646;2023-04-06T13:19:42;10.47;;;7.50;;
8159;SDS011;27404;52.398;9.646;2023-04-06T13:22:08;11.60;;;7.20;;
8159;SDS011;27404;52.398;9.646;2023-04-06T13:24:33;11.07;;;6.83;;
8159;SDS011;27404;52.398;9.646;2023-04-06T13:26:59;9.70;;;6.87;;
8159;SDS011;27404;52.398;9.646;2023-04-06T13:29:25;15.13;;;8.43;;
8159;SDS011;27404;52.398;9.646;2023-04-06T13:31:52;13.90;;;7.20;;
8159;SDS011;27404;52.398;9.646;2023-04-06T13:34:17;11.90;;;6.30;;
8159;SDS011;27404;52.398;9.646;2023-04-06T13:36:43;8.43;;;6.33;;
8159;SDS011;27404;52.398;9.646;2023-04-06T13:39:08;9.77;;;6.83;;
8159;SDS011;27404;52.398;9.646;2023-04-06T13:41:34;9.87;;;6.83;;
8159;SDS011;27404;52.398;9.646;2023-04-06T13:43:59;11.77;;;7.03;;
8159;SDS011;27404;52.398;9.646;2023-04-06T13:46:25;10.30;;;7.03;;
8159;SDS011;27404;52.398;9.646;2023-04-06T13:48:51;11.83;;;7.10;;
8159;SDS011;27404;52.398;9.646;2023-04-06T13:51:16;10.37;;;7.17;;
8159;SDS011;27404;52.398;9.646;2023-04-06T13:53:41;9.43;;;6.87;;
8159;SDS011;27404;52.398;9.646;2023-04-06T13:56:07;10.00;;;6.63;;
8159;SDS011;27404;52.398;9.646;2023-04-06T13:58:33;10.07;;;6.40;;
8159;SDS011;27404;52.398;9.646;2023-04-06T14:01:02;12.07;;;7.07;;
8159;SDS011;27404;52.398;9.646;2023-04-06T14:03:29;11.83;;;6.87;;
8159;SDS011;27404;52.398;9.646;2023-04-06T14:05:54;9.73;;;6.80;;
8159;SDS011;27404;52.398;9.646;2023-04-06T14:08:20;9.57;;;6.80;;
8159;SDS011;27404;52.398;9.646;2023-04-06T14:10:45;11.27;;;7.20;;
8159;SDS011;27404;52.398;9.646;2023-04-06T14:13:11;11.47;;;6.83;;
8159;SDS011;27404;52.398;9.646;2023-04-06T14:15:36;11.23;;;7.10;;
8159;SDS011;27404;52.398;9.646;2023-04-06T14:18:02;8.77;;;6.03;;
8159;SDS011;27404;52.398;9.646;2023-04-06T14:20:27;10.67;;;6.37;;
8159;SDS011;27404;52.398;9.646;2023-04-06T14:22:53;17.07;;;7.40;;
8159;SDS011;27404;52.398;9.646;2023-04-06T14:25:20;11.10;;;6.47;;
8159;SDS011;27404;52.398;9.646;2023-04-06T14:27:46;11.20;;;6.00;;
8159;SDS011;27404;52.398;9.646;2023-04-06T14:30:12;10.17;;;6.97;;
8159;SDS011;27404;52.398;9.646;2023-04-06T14:32:38;9.33;;;6.70;;
8159;SDS011;27404;52.398;9.646;2023-04-06T14:35:04;10.70;;;6.57;;
8159;SDS011;27404;52.398;9.646;2023-04-06T14:37:30;9.87;;;6.20;;
8159;SDS011;27404;52.398;9.646;2023-04-06T14:39:55;12.37;;;7.20;;
8159;SDS011;27404;52.398;9.646;2023-04-06T14:42:21;11.70;;;6.50;;
8159;SDS011;27404;52.398;9.646;2023-04-06T14:44:46;8.10;;;6.17;;
8159;SDS011;27404;52.398;9.646;2023-04-06T14:47:13;9.47;;;6.50;;
8159;SDS011;27404;52.398;9.646;2023-04-06T14:49:45;8.30;;;6.20;;
8159;SDS011;27404;52.398;9.646;2023-04-06T14:52:10;10.07;;;7.07;;
8159;SDS011;27404;52.398;9.646;2023-04-06T14:54:36;10.03;;;6.60;;